sensor_id;sensor_type;location;lat;lon;timestamp;P1;durP1;ratioP1;P2;durP2;ratioP2
40453;SDS011;26160;51.858;4.398;2022-12-24T00:01:25;77.93;;;8.93;;
40453;SDS011;26160;51.858;4.398;2022-12-24T00:03:51;78.87;;;9.23;;
40453;SDS011;26160;51.858;4.398;2022-12-24T00:06:18;66.90;;;9.87;;
40453;SDS011;26160;51.858;4.398;2022-12-24T00:08:47;69.47;;;8.63;;
40453;SDS011;26160;51.858;4.398;2022-12-24T00:11:15;60.07;;;10.50;;
40453;SDS011;26160;51.858;4.398;2022-12-24T00:13:41;72.77;;;9.33;;
40453;SDS011;26160;51.858;4.398;2022-12-24T00:16:08;67.53;;;9.23;;
40453;SDS011;26160;51.858;4.398;2022-12-24T00:18:34;73.53;;;9.23;;
40453;SDS011;26160;51.858;4.398;2022-12-24T00:21:00;70.97;;;9.00;;
40453;SDS011;26160;51.858;4.398;2022-12-24T00:23:28;70.60;;;9.37;;
40453;SDS011;26160;51.858;4.398;2022-12-24T00:25:54;74.87;;;12.07;;
40453;SDS011;26160;51.858;4.398;2022-12-24T00:28:20;63.77;;;9.90;;
40453;SDS011;26160;51.858;4.398;2022-12-24T00:30:47;65.20;;;9.97;;
40453;SDS011;26160;51.858;4.398;2022-12-24T00:33:13;85.57;;;11.47;;
40453;SDS011;26160;51.858;4.398;2022-12-24T00:35:39;64.30;;;9.87;;
40453;SDS011;26160;51.858;4.398;2022-12-24T00:38:06;76.40;;;9.33;;
40453;SDS011;26160;51.858;4.398;2022-12-24T00:40:33;82.83;;;9.53;;
40453;SDS011;26160;51.858;4.398;2022-12-24T00:42:59;66.73;;;9.83;;
40453;SDS011;26160;51.858;4.398;2022-12-24T00:45:25;73.03;;;10.67;;
40453;SDS011;26160;51.858;4.398;2022-12-24T00:47:53;90.77;;;11.57;;
40453;SDS011;26160;51.858;4.398;2022-12-24T00:50:19;73.53;;;9.70;;
40453;SDS011;26160;51.858;4.398;2022-12-24T00:52:45;79.67;;;10.40;;
40453;SDS011;26160;51.858;4.398;2022-12-24T00:55:11;77.43;;;9.97;;
40453;SDS011;26160;51.858;4.398;2022-12-24T00:57:37;79.40;;;10.27;;
40453;SDS011;26160;51.858;4.398;2022-12-24T01:00:03;82.37;;;11.47;;
40453;SDS011;26160;51.858;4.398;2022-12-24T01:02:30;80.33;;;10.77;;
40453;SDS011;26160;51.858;4.398;2022-12-24T01:04:56;76.00;;;9.97;;
40453;SDS011;26160;51.858;4.398;2022-12-24T01:07:35;65.83;;;10.57;;
40453;SDS011;26160;51.858;4.398;2022-12-24T01:10:06;58.93;;;8.83;;
40453;SDS011;26160;51.858;4.398;2022-12-24T01:12:33;71.43;;;8.97;;
40453;SDS011;26160;51.858;4.398;2022-12-24T01:14:59;52.43;;;7.27;;
40453;SDS011;26160;51.858;4.398;2022-12-24T01:17:25;61.07;;;9.50;;
40453;SDS011;26160;51.858;4.398;2022-12-24T01:19:51;57.43;;;8.40;;
40453;SDS011;26160;51.858;4.398;2022-12-24T01:22:17;57.77;;;7.43;;
40453;SDS011;26160;51.858;4.398;2022-12-24T01:24:43;45.93;;;6.43;;
40453;SDS011;26160;51.858;4.398;2022-12-24T01:27:10;55.20;;;7.90;;
40453;SDS011;26160;51.858;4.398;2022-12-24T01:29:36;59.97;;;7.70;;
40453;SDS011;26160;51.858;4.398;2022-12-24T01:32:02;60.67;;;9.03;;
40453;SDS011;26160;51.858;4.398;2022-12-24T01:34:28;50.90;;;6.97;;
40453;SDS011;26160;51.858;4.398;2022-12-24T01:36:54;60.37;;;7.93;;
40453;SDS011;26160;51.858;4.398;2022-12-24T01:39:20;60.67;;;7.23;;
40453;SDS011;26160;51.858;4.398;2022-12-24T01:41:47;69.13;;;8.67;;
40453;SDS011;26160;51.858;4.398;2022-12-24T01:44:33;59.67;;;7.63;;
40453;SDS011;26160;51.858;4.398;2022-12-24T01:49:40;61.73;;;7.00;;
40453;SDS011;26160;51.858;4.398;2022-12-24T01:52:14;79.43;;;9.93;;
40453;SDS011;26160;51.858;4.398;2022-12-24T01:54:49;64.33;;;10.13;;
40453;SDS011;26160;51.858;4.398;2022-12-24T01:57:26;86.53;;;10.30;;
40453;SDS011;26160;51.858;4.398;2022-12-24T01:59:57;71.47;;;9.90;;
40453;SDS011;26160;51.858;4.398;2022-12-24T02:02:26;77.60;;;11.57;;
40453;SDS011;26160;51.858;4.398;2022-12-24T02:07:27;82.90;;;10.47;;
40453;SDS011;26160;51.858;4.398;2022-12-24T02:09:56;82.80;;;11.50;;
40453;SDS011;26160;51.858;4.398;2022-12-24T02:12:24;69.13;;;9.33;;
40453;SDS011;26160;51.858;4.398;2022-12-24T02:14:55;83.63;;;9.50;;
40453;SDS011;26160;51.858;4.398;2022-12-24T02:17:36;85.23;;;12.03;;
40453;SDS011;26160;51.858;4.398;2022-12-24T02:31:19;91.20;;;10.07;;
40453;SDS011;26160;51.858;4.398;2022-12-24T02:34:15;65.53;;;10.20;;
40453;SDS011;26160;51.858;4.398;2022-12-24T02:37:05;71.00;;;10.67;;
40453;SDS011;26160;51.858;4.398;2022-12-24T02:39:47;80.33;;;9.63;;
40453;SDS011;26160;51.858;4.398;2022-12-24T02:42:14;73.07;;;10.10;;
40453;SDS011;26160;51.858;4.398;2022-12-24T02:44:52;64.50;;;9.97;;
40453;SDS011;26160;51.858;4.398;2022-12-24T02:47:26;62.47;;;9.37;;
40453;SDS011;26160;51.858;4.398;2022-12-24T02:49:58;74.80;;;9.27;;
40453;SDS011;26160;51.858;4.398;2022-12-24T02:52:29;58.40;;;8.80;;
40453;SDS011;26160;51.858;4.398;2022-12-24T02:55:00;66.90;;;9.73;;
40453;SDS011;26160;51.858;4.398;2022-12-24T03:00:17;59.90;;;9.47;;
40453;SDS011;26160;51.858;4.398;2022-12-24T03:08:02;70.03;;;9.43;;
40453;SDS011;26160;51.858;4.398;2022-12-24T03:13:24;57.00;;;7.60;;
40453;SDS011;26160;51.858;4.398;2022-12-24T03:15:52;58.53;;;8.37;;
40453;SDS011;26160;51.858;4.398;2022-12-24T03:18:20;63.23;;;8.43;;
40453;SDS011;26160;51.858;4.398;2022-12-24T03:21:11;50.13;;;6.50;;
40453;SDS011;26160;51.858;4.398;2022-12-24T03:23:41;51.53;;;6.97;;
40453;SDS011;26160;51.858;4.398;2022-12-24T03:26:07;51.73;;;7.00;;
40453;SDS011;26160;51.858;4.398;2022-12-24T03:28:36;53.03;;;6.50;;
40453;SDS011;26160;51.858;4.398;2022-12-24T03:31:04;50.47;;;6.63;;
40453;SDS011;26160;51.858;4.398;2022-12-24T03:33:31;55.37;;;7.30;;
40453;SDS011;26160;51.858;4.398;2022-12-24T03:35:58;40.80;;;6.83;;
40453;SDS011;26160;51.858;4.398;2022-12-24T03:38:24;55.30;;;9.07;;
40453;SDS011;26160;51.858;4.398;2022-12-24T03:40:50;53.73;;;7.73;;
40453;SDS011;26160;51.858;4.398;2022-12-24T03:43:16;58.63;;;7.80;;
40453;SDS011;26160;51.858;4.398;2022-12-24T03:45:43;53.83;;;7.23;;
40453;SDS011;26160;51.858;4.398;2022-12-24T03:48:09;60.57;;;9.37;;
40453;SDS011;26160;51.858;4.398;2022-12-24T03:50:35;58.20;;;8.33;;
40453;SDS011;26160;51.858;4.398;2022-12-24T03:53:01;59.23;;;8.30;;
40453;SDS011;26160;51.858;4.398;2022-12-24T03:55:27;52.87;;;7.20;;
40453;SDS011;26160;51.858;4.398;2022-12-24T03:57:56;61.00;;;8.13;;
40453;SDS011;26160;51.858;4.398;2022-12-24T04:00:22;56.87;;;8.83;;
40453;SDS011;26160;51.858;4.398;2022-12-24T04:02:48;71.50;;;8.70;;
40453;SDS011;26160;51.858;4.398;2022-12-24T04:05:15;59.20;;;8.33;;
40453;SDS011;26160;51.858;4.398;2022-12-24T04:07:43;65.67;;;8.60;;
40453;SDS011;26160;51.858;4.398;2022-12-24T04:10:10;68.33;;;8.60;;
40453;SDS011;26160;51.858;4.398;2022-12-24T04:12:37;62.43;;;8.30;;
40453;SDS011;26160;51.858;4.398;2022-12-24T04:15:03;62.50;;;8.47;;
40453;SDS011;26160;51.858;4.398;2022-12-24T04:17:30;73.37;;;10.43;;
40453;SDS011;26160;51.858;4.398;2022-12-24T04:19:56;63.67;;;9.20;;
40453;SDS011;26160;51.858;4.398;2022-12-24T04:22:22;63.97;;;9.40;;
40453;SDS011;26160;51.858;4.398;2022-12-24T04:24:48;72.80;;;10.20;;
40453;SDS011;26160;51.858;4.398;2022-12-24T04:27:14;80.87;;;9.23;;
40453;SDS011;26160;51.858;4.398;2022-12-24T04:29:41;76.90;;;10.77;;
40453;SDS011;26160;51.858;4.398;2022-12-24T04:32:07;68.03;;;10.07;;
40453;SDS011;26160;51.858;4.398;2022-12-24T04:34:35;84.00;;;10.03;;
40453;SDS011;26160;51.858;4.398;2022-12-24T04:37:01;78.13;;;10.43;;
40453;SDS011;26160;51.858;4.398;2022-12-24T04:39:28;84.90;;;10.47;;
40453;SDS011;26160;51.858;4.398;2022-12-24T04:41:54;82.53;;;9.57;;
40453;SDS011;26160;51.858;4.398;2022-12-24T04:44:20;94.73;;;11.47;;
40453;SDS011;26160;51.858;4.398;2022-12-24T04:46:46;84.17;;;11.37;;
40453;SDS011;26160;51.858;4.398;2022-12-24T04:49:12;87.77;;;11.63;;
40453;SDS011;26160;51.858;4.398;2022-12-24T04:51:38;93.03;;;12.53;;
40453;SDS011;26160;51.858;4.398;2022-12-24T04:54:04;90.17;;;12.77;;
40453;SDS011;26160;51.858;4.398;2022-12-24T04:56:31;83.97;;;10.83;;
40453;SDS011;26160;51.858;4.398;2022-12-24T04:58:57;93.40;;;11.00;;
40453;SDS011;26160;51.858;4.398;2022-12-24T05:01:26;83.50;;;11.73;;
40453;SDS011;26160;51.858;4.398;2022-12-24T05:03:53;101.73;;;12.73;;
40453;SDS011;26160;51.858;4.398;2022-12-24T05:06:21;77.87;;;11.23;;
40453;SDS011;26160;51.858;4.398;2022-12-24T05:08:53;79.80;;;11.33;;
40453;SDS011;26160;51.858;4.398;2022-12-24T05:11:20;79.53;;;11.77;;
40453;SDS011;26160;51.858;4.398;2022-12-24T05:13:46;89.73;;;10.87;;
40453;SDS011;26160;51.858;4.398;2022-12-24T05:16:13;81.97;;;11.47;;
40453;SDS011;26160;51.858;4.398;2022-12-24T05:18:40;96.37;;;12.97;;
40453;SDS011;26160;51.858;4.398;2022-12-24T05:21:10;95.40;;;12.77;;
40453;SDS011;26160;51.858;4.398;2022-12-24T05:23:41;91.73;;;11.23;;
40453;SDS011;26160;51.858;4.398;2022-12-24T05:26:28;77.10;;;10.40;;
40453;SDS011;26160;51.858;4.398;2022-12-24T05:28:58;78.87;;;11.53;;
40453;SDS011;26160;51.858;4.398;2022-12-24T05:31:25;91.20;;;13.90;;
40453;SDS011;26160;51.858;4.398;2022-12-24T05:33:53;87.10;;;11.30;;
40453;SDS011;26160;51.858;4.398;2022-12-24T05:36:20;95.73;;;12.60;;
40453;SDS011;26160;51.858;4.398;2022-12-24T05:38:46;84.57;;;11.97;;
40453;SDS011;26160;51.858;4.398;2022-12-24T05:41:12;85.13;;;11.93;;
40453;SDS011;26160;51.858;4.398;2022-12-24T05:43:38;79.50;;;10.47;;
40453;SDS011;26160;51.858;4.398;2022-12-24T05:46:06;88.87;;;11.90;;
40453;SDS011;26160;51.858;4.398;2022-12-24T05:48:33;89.03;;;11.87;;
40453;SDS011;26160;51.858;4.398;2022-12-24T05:51:02;86.10;;;11.00;;
40453;SDS011;26160;51.858;4.398;2022-12-24T05:53:30;83.97;;;10.67;;
40453;SDS011;26160;51.858;4.398;2022-12-24T05:58:33;82.87;;;11.50;;
40453;SDS011;26160;51.858;4.398;2022-12-24T06:01:00;80.33;;;12.17;;
40453;SDS011;26160;51.858;4.398;2022-12-24T06:03:28;75.50;;;11.43;;
40453;SDS011;26160;51.858;4.398;2022-12-24T06:06:02;76.97;;;10.27;;
40453;SDS011;26160;51.858;4.398;2022-12-24T06:08:31;74.63;;;10.40;;
40453;SDS011;26160;51.858;4.398;2022-12-24T06:10:59;82.47;;;10.87;;
40453;SDS011;26160;51.858;4.398;2022-12-24T06:13:27;95.97;;;10.80;;
40453;SDS011;26160;51.858;4.398;2022-12-24T06:15:54;73.77;;;10.03;;
40453;SDS011;26160;51.858;4.398;2022-12-24T06:18:24;75.97;;;10.37;;
40453;SDS011;26160;51.858;4.398;2022-12-24T06:20:54;74.53;;;10.13;;
40453;SDS011;26160;51.858;4.398;2022-12-24T06:23:21;84.77;;;10.40;;
40453;SDS011;26160;51.858;4.398;2022-12-24T06:25:48;80.27;;;10.77;;
40453;SDS011;26160;51.858;4.398;2022-12-24T06:28:15;89.90;;;10.37;;
40453;SDS011;26160;51.858;4.398;2022-12-24T06:30:45;80.27;;;12.20;;
40453;SDS011;26160;51.858;4.398;2022-12-24T06:33:13;81.30;;;10.90;;
40453;SDS011;26160;51.858;4.398;2022-12-24T06:35:40;69.93;;;9.97;;
40453;SDS011;26160;51.858;4.398;2022-12-24T06:38:06;84.10;;;10.40;;
40453;SDS011;26160;51.858;4.398;2022-12-24T06:40:32;97.40;;;12.73;;
40453;SDS011;26160;51.858;4.398;2022-12-24T06:42:58;74.93;;;10.13;;
40453;SDS011;26160;51.858;4.398;2022-12-24T06:45:24;74.43;;;8.40;;
40453;SDS011;26160;51.858;4.398;2022-12-24T06:47:50;72.83;;;9.73;;
40453;SDS011;26160;51.858;4.398;2022-12-24T06:50:16;89.07;;;10.40;;
40453;SDS011;26160;51.858;4.398;2022-12-24T06:52:42;85.03;;;10.37;;
40453;SDS011;26160;51.858;4.398;2022-12-24T06:55:09;80.93;;;10.60;;
40453;SDS011;26160;51.858;4.398;2022-12-24T06:57:35;99.83;;;10.67;;
40453;SDS011;26160;51.858;4.398;2022-12-24T07:00:01;79.00;;;9.53;;
40453;SDS011;26160;51.858;4.398;2022-12-24T07:02:28;84.33;;;11.23;;
40453;SDS011;26160;51.858;4.398;2022-12-24T07:04:54;80.80;;;11.57;;
40453;SDS011;26160;51.858;4.398;2022-12-24T07:07:20;83.53;;;11.30;;
40453;SDS011;26160;51.858;4.398;2022-12-24T07:09:46;73.07;;;11.13;;
40453;SDS011;26160;51.858;4.398;2022-12-24T07:12:12;84.73;;;10.93;;
40453;SDS011;26160;51.858;4.398;2022-12-24T07:14:38;80.63;;;11.77;;
40453;SDS011;26160;51.858;4.398;2022-12-24T07:17:04;81.03;;;11.00;;
40453;SDS011;26160;51.858;4.398;2022-12-24T07:19:31;80.97;;;10.83;;
40453;SDS011;26160;51.858;4.398;2022-12-24T07:21:57;78.20;;;10.50;;
40453;SDS011;26160;51.858;4.398;2022-12-24T07:24:23;66.10;;;10.00;;
40453;SDS011;26160;51.858;4.398;2022-12-24T07:26:49;80.70;;;11.13;;
40453;SDS011;26160;51.858;4.398;2022-12-24T07:29:15;75.13;;;11.50;;
40453;SDS011;26160;51.858;4.398;2022-12-24T07:31:41;74.10;;;10.83;;
40453;SDS011;26160;51.858;4.398;2022-12-24T07:34:07;75.43;;;11.37;;
40453;SDS011;26160;51.858;4.398;2022-12-24T07:36:33;65.93;;;9.77;;
40453;SDS011;26160;51.858;4.398;2022-12-24T07:38:59;81.67;;;11.63;;
40453;SDS011;26160;51.858;4.398;2022-12-24T07:41:25;80.57;;;12.03;;
40453;SDS011;26160;51.858;4.398;2022-12-24T07:43:51;71.03;;;8.97;;
40453;SDS011;26160;51.858;4.398;2022-12-24T07:46:18;89.97;;;10.17;;
40453;SDS011;26160;51.858;4.398;2022-12-24T07:48:44;78.17;;;9.43;;
40453;SDS011;26160;51.858;4.398;2022-12-24T07:51:10;80.13;;;10.80;;
40453;SDS011;26160;51.858;4.398;2022-12-24T07:53:36;83.17;;;9.33;;
40453;SDS011;26160;51.858;4.398;2022-12-24T07:56:02;72.60;;;9.00;;
40453;SDS011;26160;51.858;4.398;2022-12-24T07:58:28;69.57;;;8.67;;
40453;SDS011;26160;51.858;4.398;2022-12-24T08:00:57;70.10;;;10.37;;
40453;SDS011;26160;51.858;4.398;2022-12-24T08:03:24;60.70;;;10.20;;
40453;SDS011;26160;51.858;4.398;2022-12-24T08:05:50;71.73;;;9.73;;
40453;SDS011;26160;51.858;4.398;2022-12-24T08:08:17;64.87;;;9.37;;
40453;SDS011;26160;51.858;4.398;2022-12-24T08:10:44;69.67;;;10.57;;
40453;SDS011;26160;51.858;4.398;2022-12-24T08:13:10;55.10;;;9.20;;
40453;SDS011;26160;51.858;4.398;2022-12-24T08:15:36;61.37;;;9.03;;
40453;SDS011;26160;51.858;4.398;2022-12-24T08:18:03;71.37;;;9.33;;
40453;SDS011;26160;51.858;4.398;2022-12-24T08:20:29;71.50;;;7.93;;
40453;SDS011;26160;51.858;4.398;2022-12-24T08:22:55;66.33;;;9.23;;
40453;SDS011;26160;51.858;4.398;2022-12-24T08:25:21;74.93;;;9.77;;
40453;SDS011;26160;51.858;4.398;2022-12-24T08:27:47;63.10;;;8.33;;
40453;SDS011;26160;51.858;4.398;2022-12-24T08:30:13;69.13;;;10.00;;
40453;SDS011;26160;51.858;4.398;2022-12-24T08:32:40;66.20;;;8.97;;
40453;SDS011;26160;51.858;4.398;2022-12-24T08:35:06;66.17;;;9.13;;
40453;SDS011;26160;51.858;4.398;2022-12-24T08:37:32;65.07;;;9.40;;
40453;SDS011;26160;51.858;4.398;2022-12-24T08:39:58;67.17;;;9.90;;
40453;SDS011;26160;51.858;4.398;2022-12-24T08:42:24;75.60;;;10.03;;
40453;SDS011;26160;51.858;4.398;2022-12-24T08:44:50;55.27;;;7.43;;
40453;SDS011;26160;51.858;4.398;2022-12-24T08:47:16;66.07;;;9.63;;
40453;SDS011;26160;51.858;4.398;2022-12-24T08:49:42;77.57;;;10.57;;
40453;SDS011;26160;51.858;4.398;2022-12-24T08:52:09;52.83;;;7.93;;
40453;SDS011;26160;51.858;4.398;2022-12-24T08:54:35;68.20;;;8.43;;
40453;SDS011;26160;51.858;4.398;2022-12-24T08:57:01;45.70;;;7.47;;
40453;SDS011;26160;51.858;4.398;2022-12-24T08:59:27;65.60;;;9.30;;
40453;SDS011;26160;51.858;4.398;2022-12-24T09:02:01;58.97;;;8.50;;
40453;SDS011;26160;51.858;4.398;2022-12-24T09:04:27;59.27;;;8.80;;
40453;SDS011;26160;51.858;4.398;2022-12-24T09:06:53;69.97;;;10.63;;
40453;SDS011;26160;51.858;4.398;2022-12-24T09:09:19;63.97;;;9.53;;
40453;SDS011;26160;51.858;4.398;2022-12-24T09:11:45;68.93;;;8.57;;
40453;SDS011;26160;51.858;4.398;2022-12-24T09:14:11;65.27;;;9.43;;
40453;SDS011;26160;51.858;4.398;2022-12-24T09:16:38;69.17;;;9.70;;
40453;SDS011;26160;51.858;4.398;2022-12-24T09:19:05;51.50;;;9.50;;
40453;SDS011;26160;51.858;4.398;2022-12-24T09:21:31;63.60;;;9.17;;
40453;SDS011;26160;51.858;4.398;2022-12-24T09:23:57;71.17;;;8.37;;
40453;SDS011;26160;51.858;4.398;2022-12-24T09:26:25;59.70;;;8.63;;
40453;SDS011;26160;51.858;4.398;2022-12-24T09:28:51;59.27;;;8.50;;
40453;SDS011;26160;51.858;4.398;2022-12-24T09:31:18;64.07;;;9.37;;
40453;SDS011;26160;51.858;4.398;2022-12-24T09:33:45;68.63;;;9.27;;
40453;SDS011;26160;51.858;4.398;2022-12-24T09:36:13;65.17;;;8.77;;
40453;SDS011;26160;51.858;4.398;2022-12-24T09:38:40;49.83;;;7.67;;
40453;SDS011;26160;51.858;4.398;2022-12-24T09:41:13;69.53;;;9.60;;
40453;SDS011;26160;51.858;4.398;2022-12-24T09:43:39;64.20;;;8.70;;
40453;SDS011;26160;51.858;4.398;2022-12-24T09:46:19;59.20;;;9.83;;
40453;SDS011;26160;51.858;4.398;2022-12-24T09:48:52;69.10;;;8.83;;
40453;SDS011;26160;51.858;4.398;2022-12-24T09:51:32;62.57;;;9.03;;
40453;SDS011;26160;51.858;4.398;2022-12-24T09:54:05;54.65;;;9.38;;
40453;SDS011;26160;51.858;4.398;2022-12-24T09:59:24;59.73;;;9.23;;
40453;SDS011;26160;51.858;4.398;2022-12-24T10:01:56;64.10;;;9.05;;
40453;SDS011;26160;51.858;4.398;2022-12-24T10:04:23;64.03;;;9.57;;
40453;SDS011;26160;51.858;4.398;2022-12-24T10:07:10;58.33;;;8.77;;
40453;SDS011;26160;51.858;4.398;2022-12-24T10:10:02;56.03;;;8.77;;
40453;SDS011;26160;51.858;4.398;2022-12-24T10:15:14;59.93;;;8.43;;
40453;SDS011;26160;51.858;4.398;2022-12-24T10:29:18;53.57;;;7.97;;
40453;SDS011;26160;51.858;4.398;2022-12-24T10:34:19;61.27;;;8.77;;
40453;SDS011;26160;51.858;4.398;2022-12-24T10:36:52;54.23;;;8.60;;
40453;SDS011;26160;51.858;4.398;2022-12-24T10:39:20;57.67;;;9.20;;
40453;SDS011;26160;51.858;4.398;2022-12-24T10:41:49;57.10;;;8.60;;
40453;SDS011;26160;51.858;4.398;2022-12-24T10:44:17;52.63;;;7.60;;
40453;SDS011;26160;51.858;4.398;2022-12-24T10:46:46;54.17;;;9.27;;
40453;SDS011;26160;51.858;4.398;2022-12-24T10:49:14;56.47;;;8.10;;
40453;SDS011;26160;51.858;4.398;2022-12-24T10:51:55;55.47;;;7.63;;
40453;SDS011;26160;51.858;4.398;2022-12-24T10:54:25;63.05;;;8.27;;
40453;SDS011;26160;51.858;4.398;2022-12-24T10:56:56;66.87;;;9.43;;
40453;SDS011;26160;51.858;4.398;2022-12-24T10:59:26;63.73;;;9.07;;
40453;SDS011;26160;51.858;4.398;2022-12-24T11:01:58;63.73;;;9.00;;
40453;SDS011;26160;51.858;4.398;2022-12-24T11:04:29;58.53;;;8.17;;
40453;SDS011;26160;51.858;4.398;2022-12-24T11:07:01;57.30;;;8.00;;
40453;SDS011;26160;51.858;4.398;2022-12-24T11:09:32;53.50;;;7.77;;
40453;SDS011;26160;51.858;4.398;2022-12-24T11:12:04;57.90;;;8.27;;
40453;SDS011;26160;51.858;4.398;2022-12-24T11:14:40;65.13;;;9.13;;
40453;SDS011;26160;51.858;4.398;2022-12-24T11:17:07;51.07;;;8.33;;
40453;SDS011;26160;51.858;4.398;2022-12-24T11:19:46;59.13;;;8.33;;
40453;SDS011;26160;51.858;4.398;2022-12-24T11:22:22;48.93;;;7.30;;
40453;SDS011;26160;51.858;4.398;2022-12-24T11:27:47;49.03;;;6.93;;
40453;SDS011;26160;51.858;4.398;2022-12-24T11:30:29;41.30;;;7.47;;
40453;SDS011;26160;51.858;4.398;2022-12-24T11:35:26;40.33;;;6.10;;
40453;SDS011;26160;51.858;4.398;2022-12-24T11:40:39;41.87;;;6.30;;
40453;SDS011;26160;51.858;4.398;2022-12-24T11:43:15;44.53;;;8.07;;
40453;SDS011;26160;51.858;4.398;2022-12-24T11:45:54;46.80;;;6.87;;
40453;SDS011;26160;51.858;4.398;2022-12-24T11:48:26;39.03;;;6.50;;
40453;SDS011;26160;51.858;4.398;2022-12-24T11:50:55;59.37;;;8.60;;
40453;SDS011;26160;51.858;4.398;2022-12-24T11:53:31;40.13;;;6.30;;
40453;SDS011;26160;51.858;4.398;2022-12-24T11:56:11;46.93;;;8.27;;
40453;SDS011;26160;51.858;4.398;2022-12-24T11:59:06;53.93;;;8.53;;
40453;SDS011;26160;51.858;4.398;2022-12-24T12:04:17;49.05;;;7.35;;
40453;SDS011;26160;51.858;4.398;2022-12-24T12:10:10;51.43;;;7.33;;
40453;SDS011;26160;51.858;4.398;2022-12-24T12:12:45;40.47;;;6.17;;
40453;SDS011;26160;51.858;4.398;2022-12-24T12:15:22;46.40;;;7.23;;
40453;SDS011;26160;51.858;4.398;2022-12-24T12:17:59;40.20;;;6.13;;
40453;SDS011;26160;51.858;4.398;2022-12-24T12:25:52;36.93;;;5.83;;
40453;SDS011;26160;51.858;4.398;2022-12-24T12:33:50;44.70;;;6.97;;
40453;SDS011;26160;51.858;4.398;2022-12-24T12:36:45;44.80;;;8.77;;
40453;SDS011;26160;51.858;4.398;2022-12-24T12:39:18;33.67;;;7.57;;
40453;SDS011;26160;51.858;4.398;2022-12-24T12:47:39;44.92;;;6.53;;
40453;SDS011;26160;51.858;4.398;2022-12-24T12:58:28;34.67;;;5.90;;
40453;SDS011;26160;51.858;4.398;2022-12-24T13:01:14;41.70;;;7.60;;
40453;SDS011;26160;51.858;4.398;2022-12-24T13:04:15;38.42;;;6.32;;
40453;SDS011;26160;51.858;4.398;2022-12-24T13:09:27;46.53;;;6.47;;
40453;SDS011;26160;51.858;4.398;2022-12-24T13:20:38;41.57;;;6.53;;
40453;SDS011;26160;51.858;4.398;2022-12-24T13:23:11;39.47;;;6.13;;
40453;SDS011;26160;51.858;4.398;2022-12-24T13:25:46;43.60;;;6.60;;
40453;SDS011;26160;51.858;4.398;2022-12-24T13:30:48;45.60;;;6.43;;
40453;SDS011;26160;51.858;4.398;2022-12-24T13:36:11;43.33;;;6.47;;
40453;SDS011;26160;51.858;4.398;2022-12-24T13:38:43;45.60;;;6.57;;
40453;SDS011;26160;51.858;4.398;2022-12-24T13:46:50;53.20;;;7.50;;
40453;SDS011;26160;51.858;4.398;2022-12-24T13:52:16;58.20;;;9.23;;
40453;SDS011;26160;51.858;4.398;2022-12-24T13:54:58;52.67;;;7.90;;
40453;SDS011;26160;51.858;4.398;2022-12-24T14:18:37;56.67;;;7.70;;
40453;SDS011;26160;51.858;4.398;2022-12-24T14:21:05;47.40;;;7.57;;
40453;SDS011;26160;51.858;4.398;2022-12-24T14:23:44;51.63;;;7.23;;
40453;SDS011;26160;51.858;4.398;2022-12-24T14:26:17;51.10;;;7.13;;
40453;SDS011;26160;51.858;4.398;2022-12-24T14:28:47;39.57;;;7.03;;
40453;SDS011;26160;51.858;4.398;2022-12-24T14:31:27;45.60;;;8.38;;
40453;SDS011;26160;51.858;4.398;2022-12-24T14:34:06;45.13;;;6.83;;
40453;SDS011;26160;51.858;4.398;2022-12-24T14:36:36;48.67;;;7.60;;
40453;SDS011;26160;51.858;4.398;2022-12-24T14:39:05;52.67;;;8.00;;
40453;SDS011;26160;51.858;4.398;2022-12-24T14:41:48;46.93;;;7.20;;
40453;SDS011;26160;51.858;4.398;2022-12-24T14:52:47;40.50;;;7.00;;
40453;SDS011;26160;51.858;4.398;2022-12-24T14:55:34;39.77;;;6.60;;
40453;SDS011;26160;51.858;4.398;2022-12-24T15:00:53;39.27;;;7.90;;
40453;SDS011;26160;51.858;4.398;2022-12-24T15:03:28;55.83;;;7.97;;
40453;SDS011;26160;51.858;4.398;2022-12-24T15:05:59;61.40;;;9.33;;
40453;SDS011;26160;51.858;4.398;2022-12-24T15:11:16;48.13;;;7.47;;
40453;SDS011;26160;51.858;4.398;2022-12-24T15:13:53;44.47;;;6.90;;
40453;SDS011;26160;51.858;4.398;2022-12-24T15:16:31;50.43;;;8.13;;
40453;SDS011;26160;51.858;4.398;2022-12-24T15:19:05;43.13;;;7.00;;
40453;SDS011;26160;51.858;4.398;2022-12-24T15:21:38;43.43;;;7.27;;
40453;SDS011;26160;51.858;4.398;2022-12-24T15:24:30;52.33;;;8.30;;
40453;SDS011;26160;51.858;4.398;2022-12-24T15:26:59;47.13;;;7.17;;
40453;SDS011;26160;51.858;4.398;2022-12-24T15:29:41;47.63;;;7.37;;
40453;SDS011;26160;51.858;4.398;2022-12-24T15:32:10;46.73;;;8.87;;
40453;SDS011;26160;51.858;4.398;2022-12-24T15:34:42;49.27;;;8.43;;
40453;SDS011;26160;51.858;4.398;2022-12-24T15:37:20;43.10;;;8.27;;
40453;SDS011;26160;51.858;4.398;2022-12-24T15:39:54;55.43;;;10.07;;
40453;SDS011;26160;51.858;4.398;2022-12-24T15:42:25;48.53;;;9.93;;
40453;SDS011;26160;51.858;4.398;2022-12-24T15:47:58;55.87;;;14.13;;
40453;SDS011;26160;51.858;4.398;2022-12-24T15:50:36;63.77;;;15.17;;
40453;SDS011;26160;51.858;4.398;2022-12-24T15:53:14;51.97;;;14.30;;
40453;SDS011;26160;51.858;4.398;2022-12-24T15:55:46;60.60;;;12.40;;
40453;SDS011;26160;51.858;4.398;2022-12-24T15:58:30;64.17;;;12.03;;
40453;SDS011;26160;51.858;4.398;2022-12-24T16:03:39;58.53;;;11.47;;
40453;SDS011;26160;51.858;4.398;2022-12-24T16:06:10;57.13;;;11.40;;
40453;SDS011;26160;51.858;4.398;2022-12-24T16:08:37;43.97;;;10.47;;
40453;SDS011;26160;51.858;4.398;2022-12-24T16:13:41;55.57;;;10.43;;
40453;SDS011;26160;51.858;4.398;2022-12-24T16:16:14;49.10;;;12.00;;
40453;SDS011;26160;51.858;4.398;2022-12-24T16:18:55;57.70;;;14.70;;
40453;SDS011;26160;51.858;4.398;2022-12-24T16:21:44;56.27;;;12.73;;
40453;SDS011;26160;51.858;4.398;2022-12-24T16:24:14;53.53;;;12.70;;
40453;SDS011;26160;51.858;4.398;2022-12-24T16:26:47;51.43;;;10.63;;
40453;SDS011;26160;51.858;4.398;2022-12-24T16:29:14;68.03;;;13.73;;
40453;SDS011;26160;51.858;4.398;2022-12-24T16:31:45;47.83;;;12.13;;
40453;SDS011;26160;51.858;4.398;2022-12-24T16:34:15;49.00;;;12.57;;
40453;SDS011;26160;51.858;4.398;2022-12-24T16:36:42;52.17;;;11.67;;
40453;SDS011;26160;51.858;4.398;2022-12-24T16:39:13;46.07;;;12.53;;
40453;SDS011;26160;51.858;4.398;2022-12-24T16:42:04;69.40;;;17.00;;
40453;SDS011;26160;51.858;4.398;2022-12-24T16:44:51;60.60;;;17.00;;
40453;SDS011;26160;51.858;4.398;2022-12-24T16:47:27;61.57;;;16.70;;
40453;SDS011;26160;51.858;4.398;2022-12-24T16:49:59;68.43;;;17.60;;
40453;SDS011;26160;51.858;4.398;2022-12-24T16:52:28;63.90;;;16.90;;
40453;SDS011;26160;51.858;4.398;2022-12-24T16:54:58;49.37;;;17.60;;
40453;SDS011;26160;51.858;4.398;2022-12-24T16:57:25;63.73;;;16.57;;
40453;SDS011;26160;51.858;4.398;2022-12-24T16:59:52;72.50;;;17.17;;
40453;SDS011;26160;51.858;4.398;2022-12-24T17:02:19;59.00;;;15.97;;
40453;SDS011;26160;51.858;4.398;2022-12-24T17:04:47;61.43;;;17.00;;
40453;SDS011;26160;51.858;4.398;2022-12-24T17:07:15;71.13;;;18.20;;
40453;SDS011;26160;51.858;4.398;2022-12-24T17:09:43;70.13;;;19.27;;
40453;SDS011;26160;51.858;4.398;2022-12-24T17:12:09;71.90;;;20.97;;
40453;SDS011;26160;51.858;4.398;2022-12-24T17:14:37;64.50;;;18.67;;
40453;SDS011;26160;51.858;4.398;2022-12-24T17:17:03;69.70;;;19.13;;
40453;SDS011;26160;51.858;4.398;2022-12-24T17:19:30;59.90;;;17.77;;
40453;SDS011;26160;51.858;4.398;2022-12-24T17:21:56;73.77;;;24.50;;